Time;durP1;ratioP1;P1;durP2;ratioP2;P2;SDS_P1;SDS_P2;PMS_P1;PMS_P2;Temp;Humidity;BMP_temperature;BMP_pressure;BME280_temperature;BME280_humidity;BME280_pressure;Samples;Min_cycle;Max_cycle;Signal;HPM_P1;HPM_P2
2022/05/20 00:01:14;;;;;;;0.30;0.20;;;17.00;99.90;;;;;;5066931;28;20494;-94
2022/05/20 00:03:42;;;;;;;0.30;0.20;;;17.00;99.90;;;;;;5069201;28;20466;-92
2022/05/20 00:06:10;;;;;;;0.30;0.20;;;16.90;99.90;;;;;;5077289;28;20986;-92
2022/05/20 00:08:38;;;;;;;0.30;0.20;;;16.90;99.90;;;;;;5070389;28;20496;-92
2022/05/20 00:11:06;;;;;;;3.13;0.53;;;16.90;99.90;;;;;;5065387;28;20485;-91
2022/05/20 00:13:35;;;;;;;0.30;0.20;;;16.80;99.90;;;;;;5066048;28;20797;-92
2022/05/20 00:16:04;;;;;;;0.30;0.20;;;16.90;99.90;;;;;;5072141;28;20443;-92
2022/05/20 00:18:31;;;;;;;0.40;0.30;;;16.90;99.90;;;;;;5092138;28;20431;-93
2022/05/20 00:20:59;;;;;;;0.30;0.30;;;16.80;99.90;;;;;;5088737;28;20491;-92
2022/05/20 00:23:27;;;;;;;0.30;0.20;;;16.90;99.90;;;;;;5075007;28;20517;-91
2022/05/20 00:25:54;;;;;;;0.70;0.30;;;16.90;99.90;;;;;;5074766;28;21474;-92
2022/05/20 00:28:23;;;;;;;0.30;0.20;;;16.90;99.90;;;;;;5068143;28;20946;-92
2022/05/20 00:30:54;;;;;;;0.57;0.53;;;17.00;99.90;;;;;;5064347;28;20460;-92
2022/05/20 00:33:24;;;;;;;0.50;0.30;;;17.10;99.90;;;;;;5066769;28;20466;-92
2022/05/20 00:35:51;;;;;;;0.30;0.30;;;17.20;99.90;;;;;;5069975;28;20470;-92
2022/05/20 00:38:19;;;;;;;0.30;0.20;;;17.30;99.90;;;;;;5070423;28;20447;-91
2022/05/20 00:40:49;;;;;;;0.37;0.27;;;17.30;99.90;;;;;;5068375;28;20691;-92
2022/05/20 00:43:23;;;;;;;0.30;0.20;;;17.40;99.90;;;;;;5070678;28;20605;-92
2022/05/20 00:45:51;;;;;;;0.30;0.20;;;17.50;99.90;;;;;;5066825;28;20463;-92
2022/05/20 00:48:19;;;;;;;0.30;0.20;;;17.60;99.90;;;;;;5070050;28;20451;-92
2022/05/20 00:50:53;;;;;;;0.40;0.40;;;17.60;99.90;;;;;;5074996;28;20443;-92
2022/05/20 00:53:23;;;;;;;0.40;0.20;;;17.70;99.90;;;;;;5087874;28;20448;-92
2022/05/20 00:55:51;;;;;;;0.30;0.30;;;17.60;99.90;;;;;;5080667;28;20459;-92
2022/05/20 00:58:21;;;;;;;0.30;0.20;;;17.60;99.90;;;;;;5076669;28;20453;-92
2022/05/20 01:00:51;;;;;;;0.60;0.60;;;17.60;99.90;;;;;;5069414;28;21038;-92
2022/05/20 01:03:24;;;;;;;0.30;0.30;;;17.60;99.90;;;;;;5071085;28;21088;-92
2022/05/20 01:05:55;;;;;;;0.30;0.20;;;17.60;99.90;;;;;;5071449;28;20461;-93
2022/05/20 01:08:24;;;;;;;0.30;0.20;;;17.60;99.90;;;;;;5066260;28;21100;-92
2022/05/20 01:10:52;;;;;;;0.30;0.30;;;17.50;99.90;;;;;;5069104;28;20502;-93
2022/05/20 01:13:20;;;;;;;0.30;0.20;;;17.50;99.90;;;;;;5064959;28;20471;-92
2022/05/20 01:15:48;;;;;;;0.53;0.30;;;17.50;99.90;;;;;;5067101;28;20466;-92
2022/05/20 01:18:17;;;;;;;0.30;0.20;;;17.50;99.90;;;;;;5065102;28;20475;-93
2022/05/20 01:20:47;;;;;;;0.53;0.50;;;17.50;99.90;;;;;;5065328;28;20484;-93
2022/05/20 01:23:20;;;;;;;0.30;0.20;;;17.40;99.90;;;;;;5070179;28;20492;-93
2022/05/20 01:25:51;;;;;;;0.40;0.20;;;17.40;99.90;;;;;;5071155;28;20526;-92
2022/05/20 01:28:21;;;;;;;0.33;0.23;;;17.30;99.90;;;;;;5066691;28;20462;-92
2022/05/20 01:30:50;;;;;;;0.30;0.20;;;17.30;99.90;;;;;;5064931;28;20470;-93
2022/05/20 01:33:24;;;;;;;0.80;0.80;;;17.30;99.90;;;;;;5068460;28;20758;-92
2022/05/20 01:35:52;;;;;;;0.33;0.27;;;17.30;99.90;;;;;;5065240;28;20507;-93
2022/05/20 01:38:21;;;;;;;0.30;0.20;;;17.30;99.90;;;;;;5068273;28;20447;-92
2022/05/20 01:40:52;;;;;;;0.30;0.20;;;17.20;99.90;;;;;;5066036;28;20514;-93
2022/05/20 01:43:37;;;;;;;1.23;0.43;;;17.20;99.90;;;;;;5064256;28;20928;-92
2022/05/20 01:46:15;;;;;;;0.30;0.20;;;17.20;99.90;;;;;;5073791;28;20464;-93
2022/05/20 01:48:50;;;;;;;0.30;0.20;;;17.20;99.90;;;;;;5071159;28;20473;-93
2022/05/20 01:51:23;;;;;;;0.30;0.20;;;17.20;99.90;;;;;;5069034;28;20459;-92
2022/05/20 01:53:58;;;;;;;0.37;0.30;;;17.20;99.90;;;;;;5063694;28;20489;-93
2022/05/20 01:56:30;;;;;;;0.40;0.40;;;17.20;99.90;;;;;;5065061;28;20474;-93
2022/05/20 01:59:04;;;;;;;0.30;0.20;;;17.20;99.90;;;;;;5067724;28;20467;-93
2022/05/20 02:01:37;;;;;;;0.30;0.20;;;17.10;99.90;;;;;;5067668;28;20984;-93
2022/05/20 02:04:08;;;;;;;0.30;0.30;;;17.20;99.90;;;;;;5071047;28;21026;-93
2022/05/20 02:06:41;;;;;;;0.30;0.20;;;17.20;99.90;;;;;;5068245;28;20482;-92
2022/05/20 02:09:14;;;;;;;0.30;0.20;;;17.10;99.90;;;;;;5064243;28;20474;-92
2022/05/20 02:11:46;;;;;;;0.93;0.40;;;17.00;99.90;;;;;;5066353;28;20444;-93
2022/05/20 02:14:20;;;;;;;0.30;0.20;;;17.00;99.90;;;;;;5065969;28;20499;-93
2022/05/20 02:16:52;;;;;;;0.87;0.33;;;17.00;99.90;;;;;;5067284;28;20473;-92
2022/05/20 02:19:24;;;;;;;0.30;0.20;;;17.00;99.90;;;;;;5081028;28;20531;-92
2022/05/20 02:22:01;;;;;;;0.30;0.20;;;16.90;99.90;;;;;;5099674;28;20493;-92
2022/05/20 02:24:33;;;;;;;0.30;0.20;;;16.90;99.90;;;;;;5085983;28;20493;-93
2022/05/20 02:27:03;;;;;;;0.40;0.30;;;16.90;99.90;;;;;;5067974;28;20492;-93
2022/05/20 02:29:37;;;;;;;0.30;0.20;;;16.90;99.90;;;;;;5072594;28;20448;-94
2022/05/20 02:32:09;;;;;;;0.30;0.30;;;17.00;99.90;;;;;;5076012;28;20462;-93
2022/05/20 02:34:37;;;;;;;0.40;0.30;;;17.00;99.90;;;;;;5067954;28;20435;-93
2022/05/20 02:37:20;;;;;;;0.30;0.20;;;17.00;99.90;;;;;;5069945;28;20478;-92
2022/05/20 02:39:50;;;;;;;0.37;0.20;;;17.10;99.90;;;;;;5072917;28;20467;-93
2022/05/20 02:42:17;;;;;;;0.30;0.20;;;17.20;99.90;;;;;;5070170;28;20456;-93
2022/05/20 02:44:45;;;;;;;0.30;0.20;;;17.20;99.90;;;;;;5067454;28;20931;-93
2022/05/20 02:47:13;;;;;;;0.30;0.20;;;17.20;99.90;;;;;;5070323;28;20494;-93
2022/05/20 02:49:41;;;;;;;0.30;0.30;;;17.20;99.90;;;;;;5072962;28;20789;-93
2022/05/20 02:52:09;;;;;;;0.40;0.30;;;17.00;99.90;;;;;;5072446;28;21077;-93
2022/05/20 02:54:37;;;;;;;0.30;0.20;;;16.90;99.90;;;;;;5066700;28;20499;-93
2022/05/20 02:57:07;;;;;;;0.30;0.20;;;16.90;99.90;;;;;;5069690;28;20463;-93
2022/05/20 03:05:07;;;;;;;0.30;0.20;;;16.90;99.90;;;;;;5076571;28;20522;-93
2022/05/20 03:07:34;;;;;;;0.30;0.20;;;16.80;99.90;;;;;;5068087;28;20463;-93
2022/05/20 03:10:02;;;;;;;0.30;0.20;;;16.70;99.90;;;;;;5070085;28;21098;-93
2022/05/20 03:12:31;;;;;;;0.30;0.20;;;16.70;99.90;;;;;;5085739;28;20622;-93
2022/05/20 03:14:58;;;;;;;0.30;0.20;;;16.70;99.90;;;;;;5076173;28;20479;-93
2022/05/20 03:17:25;;;;;;;0.30;0.20;;;16.70;99.90;;;;;;5069399;28;20471;-93
2022/05/20 03:19:53;;;;;;;0.30;0.20;;;16.70;99.90;;;;;;5067853;28;20470;-94
2022/05/20 03:22:20;;;;;;;0.30;0.20;;;16.60;99.90;;;;;;5068005;28;20520;-93
2022/05/20 03:24:48;;;;;;;0.30;0.20;;;16.60;99.90;;;;;;5068622;28;20485;-93
2022/05/20 03:27:16;;;;;;;0.33;0.23;;;16.50;99.90;;;;;;5071874;28;20473;-93
2022/05/20 03:29:46;;;;;;;0.30;0.20;;;16.40;99.90;;;;;;5066460;28;21271;-93
2022/05/20 03:32:13;;;;;;;0.30;0.20;;;16.40;99.90;;;;;;5068335;28;20494;-93
2022/05/20 03:34:43;;;;;;;0.30;0.20;;;16.50;99.90;;;;;;5068717;28;20451;-92
2022/05/20 03:37:12;;;;;;;0.40;0.20;;;16.60;99.90;;;;;;5069753;28;20478;-93
2022/05/20 03:39:42;;;;;;;0.30;0.20;;;16.60;99.90;;;;;;5077237;28;20455;-93
2022/05/20 03:42:10;;;;;;;0.50;0.27;;;16.60;99.90;;;;;;5090412;28;20479;-92
2022/05/20 03:44:37;;;;;;;0.30;0.20;;;16.60;99.90;;;;;;5090655;28;20478;-92
2022/05/20 03:47:06;;;;;;;0.30;0.20;;;16.50;99.90;;;;;;5071905;28;20481;-92
2022/05/20 03:49:34;;;;;;;0.30;0.20;;;16.50;99.90;;;;;;5074700;28;20485;-92
2022/05/20 03:52:01;;;;;;;0.30;0.20;;;16.60;99.90;;;;;;5072205;28;20485;-93
2022/05/20 03:54:32;;;;;;;0.40;0.20;;;16.60;99.90;;;;;;5077541;28;20808;-92
2022/05/20 03:57:03;;;;;;;0.40;0.20;;;16.80;99.90;;;;;;5071748;28;20447;-93
2022/05/20 03:59:33;;;;;;;0.30;0.20;;;16.90;99.90;;;;;;5069159;28;20584;-92
2022/05/20 04:02:00;;;;;;;0.30;0.20;;;17.00;99.90;;;;;;5067969;28;20990;-93
2022/05/20 04:04:33;;;;;;;0.30;0.20;;;17.00;99.90;;;;;;5069778;28;20467;-92
2022/05/20 04:07:01;;;;;;;0.30;0.20;;;17.10;99.90;;;;;;5070786;28;20451;-93
2022/05/20 04:09:29;;;;;;;0.30;0.20;;;17.10;99.90;;;;;;5070975;28;20459;-93
2022/05/20 04:11:59;;;;;;;0.30;0.20;;;17.10;99.90;;;;;;5065953;28;20463;-93
2022/05/20 04:14:28;;;;;;;0.30;0.20;;;17.10;99.90;;;;;;5072446;28;20472;-93
2022/05/20 04:16:57;;;;;;;0.30;0.20;;;17.00;99.90;;;;;;5067047;28;20486;-94
2022/05/20 04:19:25;;;;;;;0.30;0.20;;;17.10;99.90;;;;;;5066402;28;20471;-93
2022/05/20 04:21:57;;;;;;;0.30;0.20;;;17.10;99.90;;;;;;5081044;28;20494;-93
2022/05/20 04:24:24;;;;;;;0.30;0.20;;;17.30;99.90;;;;;;5098039;28;20476;-93
2022/05/20 04:26:52;;;;;;;0.30;0.20;;;17.50;99.90;;;;;;5086595;28;20461;-93
2022/05/20 04:29:20;;;;;;;0.30;0.20;;;17.60;99.90;;;;;;5080350;28;20535;-93
2022/05/20 04:31:51;;;;;;;0.40;0.20;;;17.70;99.90;;;;;;5068756;28;20495;-93
2022/05/20 04:34:19;;;;;;;0.30;0.20;;;17.60;99.90;;;;;;5071829;28;20473;-92
2022/05/20 04:36:47;;;;;;;0.30;0.20;;;17.60;99.90;;;;;;5068686;28;20475;-93
2022/05/20 04:39:16;;;;;;;0.40;0.40;;;17.70;99.90;;;;;;5083336;28;20515;-93
2022/05/20 04:47:17;;;;;;;0.40;0.40;;;17.60;99.90;;;;;;5073178;28;20456;-92
2022/05/20 04:49:45;;;;;;;0.40;0.30;;;17.50;99.90;;;;;;5071245;28;20478;-93
2022/05/20 04:52:13;;;;;;;0.30;0.20;;;17.40;99.90;;;;;;5081868;28;20466;-92
2022/05/20 04:54:50;;;;;;;0.40;0.30;;;17.30;99.90;;;;;;5076078;28;20911;-92
2022/05/20 04:57:27;;;;;;;0.30;0.20;;;17.40;99.90;;;;;;5078843;28;20462;-93
2022/05/20 04:59:57;;;;;;;1.70;0.30;;;17.50;99.90;;;;;;5064011;28;20447;-93
2022/05/20 05:02:25;;;;;;;0.30;0.20;;;17.60;99.90;;;;;;5079875;28;20490;-92
2022/05/20 05:04:53;;;;;;;0.50;0.50;;;17.80;99.90;;;;;;5069882;28;20847;-93
2022/05/20 05:07:20;;;;;;;0.30;0.20;;;17.90;99.90;;;;;;5067028;28;20535;-93
2022/05/20 05:09:50;;;;;;;0.40;0.30;;;18.00;99.90;;;;;;5063834;28;20448;-92
2022/05/20 05:12:18;;;;;;;0.40;0.23;;;17.90;99.90;;;;;;5071416;28;21199;-93
2022/05/20 05:14:47;;;;;;;0.30;0.20;;;17.90;99.90;;;;;;5066288;28;20467;-92
2022/05/20 05:17:17;;;;;;;0.40;0.20;;;18.00;99.90;;;;;;5078325;28;21001;-93
2022/05/20 05:20:06;;;;;;;0.40;0.20;;;18.00;99.90;;;;;;5068159;28;20879;-93
2022/05/20 05:22:34;;;;;;;0.40;0.30;;;18.10;99.90;;;;;;5072854;28;20487;-93
2022/05/20 05:25:05;;;;;;;0.40;0.30;;;18.30;99.90;;;;;;5075589;28;20548;-93
2022/05/20 05:27:32;;;;;;;0.30;0.20;;;18.20;99.90;;;;;;5072355;28;21087;-92
2022/05/20 05:30:00;;;;;;;0.30;0.20;;;18.10;99.90;;;;;;5077743;28;20490;-93
2022/05/20 05:32:28;;;;;;;0.30;0.20;;;18.30;99.90;;;;;;5069492;28;20466;-93
2022/05/20 05:34:55;;;;;;;0.40;0.40;;;18.40;99.90;;;;;;5066661;28;20470;-92
2022/05/20 05:37:22;;;;;;;0.40;0.40;;;18.50;99.90;;;;;;5067399;28;21130;-93
2022/05/20 05:39:50;;;;;;;0.30;0.23;;;18.70;99.90;;;;;;5075707;28;20494;-92
2022/05/20 05:42:20;;;;;;;0.30;0.20;;;18.80;99.90;;;;;;5068031;28;20503;-92
2022/05/20 05:44:48;;;;;;;0.40;0.40;;;18.80;99.90;;;;;;5065495;28;20462;-93
2022/05/20 05:47:16;;;;;;;0.30;0.20;;;18.90;99.90;;;;;;5069488;28;20606;-92
2022/05/20 05:49:43;;;;;;;0.30;0.20;;;19.10;99.90;;;;;;5072051;28;21210;-92
2022/05/20 05:52:10;;;;;;;0.30;0.20;;;19.30;99.90;;;;;;5068409;28;20471;-92
2022/05/20 05:54:38;;;;;;;0.53;0.23;;;19.10;99.90;;;;;;5067386;28;21088;-92
2022/05/20 05:57:06;;;;;;;0.30;0.20;;;19.30;99.90;;;;;;5073799;28;21003;-92
2022/05/20 05:59:37;;;;;;;0.30;0.20;;;19.70;99.90;;;;;;5066002;28;20526;-93
2022/05/20 06:02:05;;;;;;;0.30;0.20;;;19.80;99.90;;;;;;5062231;28;20497;-93
2022/05/20 06:04:33;;;;;;;0.37;0.27;;;20.00;99.90;;;;;;5062895;28;20462;-92
2022/05/20 06:07:00;;;;;;;0.30;0.20;;;20.20;99.90;;;;;;5072260;28;20466;-93
2022/05/20 06:09:28;;;;;;;0.30;0.20;;;20.50;99.90;;;;;;5080366;28;20813;-93
2022/05/20 06:11:56;;;;;;;0.40;0.40;;;20.80;99.90;;;;;;5066450;28;20458;-93
2022/05/20 06:14:24;;;;;;;0.30;0.30;;;20.90;99.90;;;;;;5073585;28;20462;-93
2022/05/20 06:16:53;;;;;;;0.40;0.30;;;21.10;99.90;;;;;;5068265;28;20462;-93
2022/05/20 06:19:20;;;;;;;0.40;0.30;;;21.30;99.90;;;;;;5074366;28;20482;-93
2022/05/20 06:21:50;;;;;;;0.40;0.30;;;21.50;99.90;;;;;;5076016;28;20494;-93
2022/05/20 06:24:18;;;;;;;0.30;0.20;;;21.70;99.90;;;;;;5091447;28;20462;-92
2022/05/20 06:26:49;;;;;;;2.10;0.97;;;21.80;99.90;;;;;;5106515;28;20532;-93
2022/05/20 06:29:16;;;;;;;0.40;0.30;;;22.00;99.90;;;;;;5080919;28;20459;-92
2022/05/20 06:31:44;;;;;;;0.40;0.30;;;22.30;99.90;;;;;;5072747;28;20463;-93
2022/05/20 06:34:12;;;;;;;0.50;0.40;;;22.40;99.90;;;;;;5076636;28;20471;-92
2022/05/20 06:42:10;;;;;;;0.40;0.30;;;22.00;99.90;;;;;;5099542;28;20478;-92
2022/05/20 06:44:37;;;;;;;0.40;0.20;;;22.00;99.90;;;;;;5091291;28;20459;-94
2022/05/20 06:47:05;;;;;;;0.40;0.30;;;22.20;99.90;;;;;;5064968;28;20924;-93
2022/05/20 06:49:35;;;;;;;0.40;0.30;;;22.30;99.90;;;;;;5081871;28;20929;-93
2022/05/20 06:52:02;;;;;;;0.40;0.20;;;22.60;99.90;;;;;;5078770;28;20489;-93
2022/05/20 06:54:29;;;;;;;0.40;0.20;;;22.60;99.90;;;;;;5084169;28;21074;-93
2022/05/20 06:56:57;;;;;;;0.80;0.30;;;22.80;99.90;;;;;;5078296;28;20795;-93
2022/05/20 06:59:24;;;;;;;0.37;0.20;;;23.00;99.90;;;;;;5077165;28;20466;-92
2022/05/20 07:01:54;;;;;;;0.40;0.20;;;23.00;99.90;;;;;;5077037;28;21024;-94
2022/05/20 07:04:21;;;;;;;0.40;0.30;;;23.10;99.90;;;;;;5072408;28;20462;-93
2022/05/20 07:06:51;;;;;;;0.47;0.40;;;23.20;99.60;;;;;;5082618;28;20536;-93
2022/05/20 07:09:19;;;;;;;0.40;0.30;;;23.20;98.70;;;;;;5083953;28;20579;-93
2022/05/20 07:11:46;;;;;;;0.40;0.20;;;23.20;99.90;;;;;;5081416;28;21116;-93
2022/05/20 07:14:14;;;;;;;0.63;0.63;;;23.20;99.90;;;;;;5079906;28;20482;-93
2022/05/20 07:16:43;;;;;;;0.40;0.30;;;23.30;99.10;;;;;;5086481;28;20500;-93
2022/05/20 07:19:11;;;;;;;0.50;0.30;;;23.30;99.40;;;;;;5079176;28;20458;-93
2022/05/20 07:21:38;;;;;;;0.70;0.60;;;23.40;99.10;;;;;;5080429;28;20510;-94
2022/05/20 07:24:08;;;;;;;0.43;0.27;;;23.60;97.10;;;;;;5068231;28;20493;-92
2022/05/20 07:26:38;;;;;;;0.40;0.27;;;23.50;96.70;;;;;;5075366;28;20466;-93
2022/05/20 07:29:08;;;;;;;0.50;0.30;;;23.60;98.10;;;;;;5068590;28;20529;-92
2022/05/20 07:31:35;;;;;;;0.40;0.20;;;23.70;98.90;;;;;;5070879;28;20525;-93
2022/05/20 07:34:03;;;;;;;0.40;0.20;;;23.70;98.30;;;;;;5074095;28;20435;-93
2022/05/20 07:36:31;;;;;;;0.40;0.20;;;23.90;96.50;;;;;;5074088;28;20472;-93
2022/05/20 07:38:58;;;;;;;0.40;0.20;;;24.00;95.70;;;;;;5071125;28;21178;-93
2022/05/20 07:41:27;;;;;;;0.40;0.20;;;23.80;96.30;;;;;;5076120;28;20462;-94
2022/05/20 07:43:55;;;;;;;0.40;0.30;;;23.90;96.20;;;;;;5081178;28;20458;-94
2022/05/20 07:46:23;;;;;;;0.40;0.30;;;24.00;96.00;;;;;;5072489;28;20490;-94
2022/05/20 07:48:50;;;;;;;0.60;0.60;;;24.10;98.10;;;;;;5075109;28;20859;-94
2022/05/20 07:51:20;;;;;;;0.40;0.27;;;24.10;97.80;;;;;;5077300;28;21001;-94
2022/05/20 07:53:54;;;;;;;0.40;0.20;;;24.30;95.30;;;;;;5077084;28;20452;-94
2022/05/20 07:56:25;;;;;;;0.60;0.40;;;24.50;95.10;;;;;;5072580;28;20463;-95
2022/05/20 07:58:59;;;;;;;0.40;0.27;;;24.40;96.00;;;;;;5073208;28;20467;-94
2022/05/20 08:01:30;;;;;;;0.40;0.30;;;24.50;94.90;;;;;;5072225;28;20443;-92
2022/05/20 08:06:47;;;;;;;0.40;0.20;;;24.70;95.20;;;;;;5067234;28;20466;-93
2022/05/20 08:09:14;;;;;;;0.40;0.30;;;24.60;96.50;;;;;;5079726;28;20670;-93
2022/05/20 08:11:42;;;;;;;0.40;0.30;;;24.60;95.60;;;;;;5071820;28;20471;-91
2022/05/20 08:14:11;;;;;;;0.40;0.30;;;24.70;95.10;;;;;;5075688;28;20472;-94
2022/05/20 08:16:38;;;;;;;0.40;0.30;;;24.50;95.00;;;;;;5067105;28;20494;-93
2022/05/20 08:19:06;;;;;;;0.40;0.30;;;24.60;95.50;;;;;;5070191;28;20478;-94
2022/05/20 08:21:34;;;;;;;0.90;0.57;;;24.90;95.90;;;;;;5087162;28;20513;-94
2022/05/20 08:24:01;;;;;;;0.40;0.30;;;25.00;94.00;;;;;;5088093;28;20519;-94
2022/05/20 08:26:29;;;;;;;0.40;0.40;;;25.30;94.90;;;;;;5096562;28;20451;-94
2022/05/20 08:28:56;;;;;;;0.40;0.33;;;25.30;94.00;;;;;;5095973;28;20463;-94
2022/05/20 08:31:27;;;;;;;0.40;0.27;;;25.30;93.60;;;;;;5085794;28;20457;-94
2022/05/20 08:33:55;;;;;;;0.67;0.30;;;25.40;93.10;;;;;;5078963;28;20464;-93
2022/05/20 08:36:22;;;;;;;0.50;0.30;;;25.60;93.80;;;;;;5084017;28;20462;-94
2022/05/20 08:38:50;;;;;;;0.40;0.30;;;25.70;94.10;;;;;;5081003;28;20456;-94
2022/05/20 08:41:21;;;;;;;0.60;0.30;;;26.00;91.90;;;;;;5074329;28;20464;-93
2022/05/20 08:43:49;;;;;;;0.40;0.20;;;25.70;92.30;;;;;;5067887;28;20541;-93
2022/05/20 08:46:21;;;;;;;0.40;0.20;;;26.00;91.80;;;;;;5085469;28;20854;-93
2022/05/20 08:48:54;;;;;;;0.40;0.30;;;26.20;90.20;;;;;;5081978;28;20463;-93
2022/05/20 08:51:22;;;;;;;0.40;0.30;;;26.40;91.10;;;;;;5088887;28;20424;-94
2022/05/20 08:53:51;;;;;;;0.40;0.30;;;26.30;90.80;;;;;;5100302;28;20470;-94
2022/05/20 08:56:22;;;;;;;0.40;0.30;;;26.20;87.60;;;;;;5106743;28;20431;-94
2022/05/20 08:58:54;;;;;;;0.40;0.30;;;26.40;88.10;;;;;;5103005;28;20446;-94
2022/05/20 09:01:32;;;;;;;0.50;0.50;;;26.70;88.90;;;;;;5093368;28;20459;-94
2022/05/20 09:04:01;;;;;;;0.40;0.30;;;26.30;90.90;;;;;;5094606;28;20493;-94
2022/05/20 09:06:31;;;;;;;0.50;0.30;;;26.70;93.00;;;;;;5094141;28;20452;-94
2022/05/20 09:09:09;;;;;;;0.40;0.30;;;26.50;91.30;;;;;;5103022;28;20439;-93
2022/05/20 09:11:36;;;;;;;0.50;0.40;;;26.90;91.30;;;;;;5102022;28;20452;-94
2022/05/20 09:17:11;;;;;;;0.40;0.30;;;27.30;91.00;;;;;;5097065;28;20515;-92
2022/05/20 09:19:53;;;;;;;0.40;0.30;;;27.20;89.50;;;;;;5098623;28;20440;-92
2022/05/20 09:22:27;;;;;;;0.40;0.30;;;27.60;88.80;;;;;;5103965;28;20478;-92
2022/05/20 09:24:55;;;;;;;0.40;0.20;;;27.90;84.00;;;;;;5097078;28;20479;-92
2022/05/20 09:27:29;;;;;;;0.70;0.30;;;28.00;84.40;;;;;;5097989;28;20484;-92
2022/05/20 09:30:00;;;;;;;0.50;0.30;;;27.90;80.30;;;;;;5092045;28;20475;-92
2022/05/20 09:32:31;;;;;;;0.40;0.20;;;27.40;84.80;;;;;;5090464;28;20536;-92
2022/05/20 09:35:05;;;;;;;0.40;0.20;;;27.80;88.80;;;;;;5093096;28;20458;-92
2022/05/20 09:37:34;;;;;;;0.40;0.40;;;28.20;81.50;;;;;;5089746;28;20812;-92
2022/05/20 09:40:21;;;;;;;0.40;0.20;;;28.20;84.80;;;;;;5091075;28;20998;-92
2022/05/20 09:43:00;;;;;;;0.40;0.20;;;27.70;83.00;;;;;;5092822;28;20987;-92
2022/05/20 09:45:28;;;;;;;0.40;0.30;;;27.20;86.70;;;;;;5085256;28;20474;-92
2022/05/20 09:47:58;;;;;;;0.40;0.30;;;27.20;87.00;;;;;;5089790;28;20516;-90
2022/05/20 09:50:31;;;;;;;0.43;0.30;;;27.20;85.90;;;;;;5082752;28;20473;-92
2022/05/20 09:53:01;;;;;;;0.40;0.30;;;27.30;82.40;;;;;;5086663;28;20467;-93
2022/05/20 09:55:31;;;;;;;0.40;0.30;;;27.40;80.80;;;;;;5084161;28;21257;-92
2022/05/20 09:58:13;;;;;;;0.40;0.30;;;27.60;81.40;;;;;;5073346;28;21171;-92
2022/05/20 10:00:44;;;;;;;0.40;0.27;;;27.90;87.70;;;;;;5080285;28;20481;-92
2022/05/20 10:03:16;;;;;;;0.40;0.20;;;28.00;88.30;;;;;;5075270;28;20489;-92
2022/05/20 10:05:53;;;;;;;0.60;0.30;;;27.70;81.30;;;;;;5084671;28;20454;-91
2022/05/20 10:08:26;;;;;;;0.50;0.40;;;27.40;84.90;;;;;;5074031;28;20538;-92
2022/05/20 10:11:08;;;;;;;0.40;0.30;;;27.60;83.90;;;;;;5069793;28;20571;-93
2022/05/20 10:13:45;;;;;;;0.90;0.37;;;28.10;81.70;;;;;;5069745;28;20444;-93
2022/05/20 10:16:27;;;;;;;0.40;0.30;;;28.30;80.20;;;;;;5075521;28;20487;-92
2022/05/20 10:19:06;;;;;;;0.40;0.30;;;28.40;79.40;;;;;;5080593;28;20463;-92
2022/05/20 10:21:51;;;;;;;0.40;0.20;;;28.20;79.80;;;;;;5074383;28;20471;-93
2022/05/20 10:24:42;;;;;;;0.40;0.20;;;28.20;81.40;;;;;;5092202;28;20482;-92
2022/05/20 10:27:13;;;;;;;0.40;0.23;;;27.80;79.90;;;;;;5097335;28;20528;-93
2022/05/20 10:32:40;;;;;;;0.50;0.40;;;28.30;80.10;;;;;;5070038;28;20580;-93
2022/05/20 10:35:12;;;;;;;0.40;0.20;;;28.20;81.10;;;;;;5080949;28;20446;-93
2022/05/20 10:38:08;;;;;;;0.40;0.30;;;28.10;78.40;;;;;;5073656;28;20446;-93
2022/05/20 10:40:44;;;;;;;0.40;0.20;;;28.30;83.60;;;;;;5076888;28;20458;-94
2022/05/20 10:43:30;;;;;;;0.40;0.30;;;28.40;81.60;;;;;;5068918;28;20483;-93
2022/05/20 10:49:12;;;;;;;0.40;0.20;;;28.40;77.10;;;;;;5079425;28;20602;-94
2022/05/20 10:52:09;;;;;;;0.40;0.23;;;28.60;71.90;;;;;;5072669;28;20459;-94
2022/05/20 10:55:01;;;;;;;0.40;0.20;;;28.90;73.50;;;;;;5073594;28;20456;-93
2022/05/20 10:58:11;;;;;;;0.50;0.30;;;29.30;69.10;;;;;;5076121;28;20939;-93
2022/05/20 11:00:50;;;;;;;0.50;0.30;;;29.20;69.50;;;;;;5073038;28;20460;-93
2022/05/20 11:03:46;;;;;;;0.40;0.20;;;28.70;73.90;;;;;;5070107;28;20472;-93
2022/05/20 11:06:45;;;;;;;0.40;0.20;;;28.80;68.10;;;;;;5083274;28;20465;-93
2022/05/20 11:09:23;;;;;;;1.13;0.43;;;28.90;69.80;;;;;;5081088;28;20448;-94
2022/05/20 11:12:04;;;;;;;0.40;0.30;;;28.80;71.30;;;;;;5075836;28;20973;-94
2022/05/20 11:15:00;;;;;;;0.40;0.23;;;28.80;69.70;;;;;;5080136;28;20467;-93
2022/05/20 11:18:00;;;;;;;0.50;0.40;;;29.20;65.90;;;;;;5067553;28;20462;-94
2022/05/20 11:20:45;;;;;;;0.50;0.30;;;29.20;66.00;;;;;;5006744;28;20470;-94
2022/05/20 11:23:37;;;;;;;0.40;0.20;;;29.30;65.10;;;;;;5073588;28;20489;-94
2022/05/20 11:26:19;;;;;;;0.40;0.20;;;29.30;65.20;;;;;;5076198;28;20471;-93
2022/05/20 11:29:37;;;;;;;0.77;0.30;;;29.40;67.80;;;;;;5073969;28;20478;-94
2022/05/20 11:32:08;;;;;;;0.40;0.30;;;29.40;64.50;;;;;;5080937;28;20529;-94
2022/05/20 11:34:58;;;;;;;0.40;0.20;;;29.90;66.40;;;;;;5078470;28;20470;-95
2022/05/20 11:37:58;;;;;;;0.40;0.20;;;29.90;67.50;;;;;;5071184;28;20455;-94
2022/05/20 11:40:37;;;;;;;0.87;0.30;;;29.80;60.60;;;;;;5082970;28;20499;-94
2022/05/20 11:43:30;;;;;;;0.40;0.30;;;30.00;62.70;;;;;;5081674;28;20487;-94
2022/05/20 11:46:07;;;;;;;0.40;0.30;;;30.00;66.40;;;;;;5067751;28;20444;-94
2022/05/20 11:49:06;;;;;;;0.40;0.20;;;30.00;68.00;;;;;;5076197;28;20451;-94
2022/05/20 11:52:18;;;;;;;0.60;0.40;;;30.20;71.10;;;;;;5086816;28;20454;-94
2022/05/20 11:54:50;;;;;;;0.50;0.40;;;30.20;65.70;;;;;;5058375;28;20472;-94
2022/05/20 11:57:24;;;;;;;0.40;0.30;;;29.80;67.70;;;;;;5065058;28;20690;-93
2022/05/20 11:59:57;;;;;;;0.70;0.40;;;29.60;65.20;;;;;;5077637;28;20462;-94
2022/05/20 12:02:27;;;;;;;0.40;0.30;;;29.70;66.30;;;;;;5067774;28;20515;-94
2022/05/20 12:04:58;;;;;;;0.40;0.20;;;29.70;67.50;;;;;;5082085;28;20483;-94
2022/05/20 12:07:26;;;;;;;0.40;0.20;;;30.00;62.70;;;;;;5085646;28;20456;-94
2022/05/20 12:09:54;;;;;;;0.40;0.30;;;29.80;65.20;;;;;;5078326;28;20471;-94
2022/05/20 12:12:28;;;;;;;0.40;0.20;;;30.00;62.80;;;;;;5074137;28;20444;-93
2022/05/20 12:15:09;;;;;;;0.40;0.20;;;30.30;65.60;;;;;;5069997;28;20451;-94
2022/05/20 12:17:39;;;;;;;0.40;0.30;;;30.50;69.20;;;;;;5065621;28;20468;-93
2022/05/20 12:26:26;;;;;;;0.40;0.20;;;29.90;68.00;;;;;;5098442;28;20421;-89
2022/05/20 12:28:54;;;;;;;0.50;0.30;;;30.10;61.40;;;;;;5101931;28;20454;-85
2022/05/20 12:31:43;;;;;;;0.50;0.30;;;30.00;61.00;;;;;;5101683;28;20465;-85
2022/05/20 12:34:32;;;;;;;0.50;0.30;;;30.20;61.50;;;;;;5101985;28;20448;-85
2022/05/20 12:37:00;;;;;;;0.80;0.50;;;30.70;67.00;;;;;;5096120;28;20443;-84
2022/05/20 12:39:51;;;;;;;0.40;0.30;;;31.10;67.50;;;;;;5102035;28;20458;-85
2022/05/20 12:42:23;;;;;;;0.43;0.27;;;30.80;62.70;;;;;;5097051;28;20485;-85
2022/05/20 12:44:52;;;;;;;0.40;0.30;;;30.60;62.40;;;;;;5104708;28;20514;-85
2022/05/20 12:47:29;;;;;;;0.40;0.27;;;31.00;65.00;;;;;;5091237;28;20956;-85
2022/05/20 12:50:04;;;;;;;0.40;0.20;;;31.50;63.30;;;;;;5095923;28;20500;-85
2022/05/20 12:52:36;;;;;;;0.40;0.20;;;31.80;61.80;;;;;;5098595;28;20465;-86
2022/05/20 12:55:16;;;;;;;0.50;0.30;;;31.60;59.90;;;;;;5102631;28;20450;-87
2022/05/20 12:57:53;;;;;;;0.40;0.30;;;30.70;58.80;;;;;;5101724;28;20944;-86
2022/05/20 13:00:28;;;;;;;0.40;0.20;;;30.70;57.10;;;;;;5101286;28;20461;-86
2022/05/20 13:02:59;;;;;;;0.40;0.30;;;30.60;56.00;;;;;;5100461;28;20585;-86
2022/05/20 13:05:33;;;;;;;0.40;0.30;;;30.80;55.20;;;;;;5108334;28;20439;-84
2022/05/20 13:08:03;;;;;;;0.40;0.20;;;30.90;54.80;;;;;;5118915;28;20458;-84
2022/05/20 13:10:35;;;;;;;0.50;0.30;;;31.10;55.60;;;;;;5099224;28;20456;-88
2022/05/20 13:13:07;;;;;;;0.40;0.30;;;31.10;53.80;;;;;;5095564;28;20469;-89
2022/05/20 13:15:45;;;;;;;0.40;0.30;;;31.30;53.40;;;;;;5099439;28;20450;-85
2022/05/20 13:18:18;;;;;;;0.40;0.20;;;31.30;57.50;;;;;;5098221;28;20451;-84
2022/05/20 13:20:47;;;;;;;0.40;0.27;;;31.20;56.70;;;;;;5104036;28;20443;-86
2022/05/20 13:23:20;;;;;;;0.40;0.30;;;31.50;58.20;;;;;;5082720;28;20957;-86
2022/05/20 13:25:50;;;;;;;0.40;0.30;;;31.20;58.50;;;;;;5098894;28;20454;-86
2022/05/20 13:28:25;;;;;;;0.50;0.33;;;31.10;60.10;;;;;;5095481;28;20550;-86
2022/05/20 13:30:59;;;;;;;0.40;0.20;;;31.20;55.20;;;;;;5103451;28;20498;-86
2022/05/20 13:33:27;;;;;;;0.40;0.20;;;31.00;56.60;;;;;;5096766;28;20932;-86
2022/05/20 13:35:56;;;;;;;0.40;0.20;;;30.60;55.20;;;;;;5077796;28;20456;-87
2022/05/20 13:38:27;;;;;;;0.40;0.20;;;30.90;54.00;;;;;;5081675;28;21000;-87
2022/05/20 13:40:57;;;;;;;0.70;0.47;;;31.00;55.70;;;;;;5088300;28;20447;-87
2022/05/20 13:43:33;;;;;;;0.50;0.30;;;31.60;56.70;;;;;;5090780;28;20573;-87
2022/05/20 13:51:36;;;;;;;0.60;0.30;;;32.40;54.80;;;;;;5085412;28;20479;-86
2022/05/20 13:54:09;;;;;;;0.40;0.30;;;31.90;54.40;;;;;;5087861;28;20447;-87